sensor_id;sensor_type;location;lat;lon;timestamp;temperature;humidity
108;DHT22;49;48.530;9.200;2022-08-19T01:02:40;24.00;1.50
108;DHT22;49;48.530;9.200;2022-08-19T01:05:10;24.00;1.00
108;DHT22;49;48.530;9.200;2022-08-19T01:07:39;23.90;1.00
108;DHT22;49;48.530;9.200;2022-08-19T01:12:36;23.70;1.20
108;DHT22;49;48.530;9.200;2022-08-19T01:17:42;23.80;1.80
108;DHT22;49;48.530;9.200;2022-08-19T01:20:13;23.60;3.00
108;DHT22;49;48.530;9.200;2022-08-19T01:22:49;23.60;3.00
108;DHT22;49;48.530;9.200;2022-08-19T01:27:49;24.00;1.00
108;DHT22;49;48.530;9.200;2022-08-19T01:30:23;24.00;1.60
108;DHT22;49;48.530;9.200;2022-08-19T01:32:52;24.10;1.40
108;DHT22;49;48.530;9.200;2022-08-19T01:35:23;23.70;1.40
108;DHT22;49;48.530;9.200;2022-08-19T01:37:54;23.40;3.80
108;DHT22;49;48.530;9.200;2022-08-19T01:40:26;23.60;2.20
108;DHT22;49;48.530;9.200;2022-08-19T01:47:58;24.10;1.00
108;DHT22;49;48.530;9.200;2022-08-19T01:53:06;23.90;2.50
108;DHT22;49;48.530;9.200;2022-08-19T01:58:12;23.60;1.70
108;DHT22;49;48.530;9.200;2022-08-19T02:00:41;23.70;1.40
108;DHT22;49;48.530;9.200;2022-08-19T02:03:09;23.70;1.70
108;DHT22;49;48.530;9.200;2022-08-19T02:08:09;23.80;1.00
108;DHT22;49;48.530;9.200;2022-08-19T02:10:41;24.00;1.00
108;DHT22;49;48.530;9.200;2022-08-19T02:20:44;23.50;1.40
108;DHT22;49;48.530;9.200;2022-08-19T02:28:48;23.20;2.80
108;DHT22;49;48.530;9.200;2022-08-19T02:36:46;23.30;3.20
108;DHT22;49;48.530;9.200;2022-08-19T05:42:23;23.10;2.70
108;DHT22;49;48.530;9.200;2022-08-19T05:57:37;23.20;2.20
108;DHT22;49;48.530;9.200;2022-08-19T06:00:06;23.30;2.60
108;DHT22;49;48.530;9.200;2022-08-19T06:02:36;23.20;2.50
108;DHT22;49;48.530;9.200;2022-08-19T06:38:23;24.90;1.00
108;DHT22;49;48.530;9.200;2022-08-19T06:41:13;24.80;1.00
108;DHT22;49;48.530;9.200;2022-08-19T06:48:54;24.70;1.00
108;DHT22;49;48.530;9.200;2022-08-19T06:53:55;24.90;1.00
108;DHT22;49;48.530;9.200;2022-08-19T07:01:33;25.20;1.00
108;DHT22;49;48.530;9.200;2022-08-19T07:04:01;25.30;1.00
108;DHT22;49;48.530;9.200;2022-08-19T07:16:39;25.00;1.00
108;DHT22;49;48.530;9.200;2022-08-19T07:24:16;24.80;1.00
108;DHT22;49;48.530;9.200;2022-08-19T07:49:18;24.80;1.00
108;DHT22;49;48.530;9.200;2022-08-19T07:51:51;24.70;1.00
108;DHT22;49;48.530;9.200;2022-08-19T07:54:21;24.80;1.00
108;DHT22;49;48.530;9.200;2022-08-19T07:56:50;24.80;1.00
108;DHT22;49;48.530;9.200;2022-08-19T08:01:48;24.80;1.00
108;DHT22;49;48.530;9.200;2022-08-19T08:09:29;24.70;1.00
108;DHT22;49;48.530;9.200;2022-08-19T08:11:59;24.70;1.00
108;DHT22;49;48.530;9.200;2022-08-19T08:14:29;24.80;1.00
108;DHT22;49;48.530;9.200;2022-08-19T08:16:59;24.70;1.00
108;DHT22;49;48.530;9.200;2022-08-19T08:19:31;24.80;1.00
108;DHT22;49;48.530;9.200;2022-08-19T08:22:01;24.70;1.00
108;DHT22;49;48.530;9.200;2022-08-19T08:27:08;24.90;1.00
108;DHT22;49;48.530;9.200;2022-08-19T08:29:37;25.10;1.00
108;DHT22;49;48.530;9.200;2022-08-19T08:34:40;24.90;1.00
108;DHT22;49;48.530;9.200;2022-08-19T08:37:07;24.40;1.00
108;DHT22;49;48.530;9.200;2022-08-19T08:39:35;24.40;1.00
108;DHT22;49;48.530;9.200;2022-08-19T08:42:19;24.60;1.00
108;DHT22;49;48.530;9.200;2022-08-19T08:44:53;24.70;1.00
108;DHT22;49;48.530;9.200;2022-08-19T08:47:30;24.60;1.00
108;DHT22;49;48.530;9.200;2022-08-19T08:50:03;24.60;1.00
108;DHT22;49;48.530;9.200;2022-08-19T08:52:34;24.50;1.00
108;DHT22;49;48.530;9.200;2022-08-19T08:55:07;24.50;1.00
108;DHT22;49;48.530;9.200;2022-08-19T08:57:44;24.70;1.00
108;DHT22;49;48.530;9.200;2022-08-19T09:00:19;24.90;1.00
108;DHT22;49;48.530;9.200;2022-08-19T09:02:47;25.00;1.00
108;DHT22;49;48.530;9.200;2022-08-19T09:05:15;25.00;1.00
108;DHT22;49;48.530;9.200;2022-08-19T09:07:52;24.70;1.00
108;DHT22;49;48.530;9.200;2022-08-19T09:10:29;24.60;1.00
108;DHT22;49;48.530;9.200;2022-08-19T09:13:08;24.70;1.00
108;DHT22;49;48.530;9.200;2022-08-19T09:15:41;24.70;1.00
108;DHT22;49;48.530;9.200;2022-08-19T09:18:10;24.60;1.00
108;DHT22;49;48.530;9.200;2022-08-19T09:20:37;24.70;1.00
108;DHT22;49;48.530;9.200;2022-08-19T09:23:05;24.70;1.00
108;DHT22;49;48.530;9.200;2022-08-19T09:25:33;24.60;1.00
108;DHT22;49;48.530;9.200;2022-08-19T09:28:07;24.50;1.00
108;DHT22;49;48.530;9.200;2022-08-19T09:33:16;24.20;1.00
108;DHT22;49;48.530;9.200;2022-08-19T09:35:43;24.30;1.00
108;DHT22;49;48.530;9.200;2022-08-19T09:38:10;24.50;1.00
108;DHT22;49;48.530;9.200;2022-08-19T09:40:37;24.60;1.00
108;DHT22;49;48.530;9.200;2022-08-19T09:43:14;24.60;1.00
108;DHT22;49;48.530;9.200;2022-08-19T09:46:12;24.70;1.00
108;DHT22;49;48.530;9.200;2022-08-19T09:48:40;24.90;1.00
108;DHT22;49;48.530;9.200;2022-08-19T09:51:10;24.90;1.00
108;DHT22;49;48.530;9.200;2022-08-19T09:53:42;24.80;1.00
108;DHT22;49;48.530;9.200;2022-08-19T09:56:09;24.60;1.40
108;DHT22;49;48.530;9.200;2022-08-19T09:58:37;24.60;1.70
108;DHT22;49;48.530;9.200;2022-08-19T10:01:06;24.60;1.00
108;DHT22;49;48.530;9.200;2022-08-19T10:03:36;24.60;1.00
108;DHT22;49;48.530;9.200;2022-08-19T10:06:05;24.80;1.00
108;DHT22;49;48.530;9.200;2022-08-19T10:08:35;25.00;1.00
108;DHT22;49;48.530;9.200;2022-08-19T10:11:04;25.00;1.00
108;DHT22;49;48.530;9.200;2022-08-19T10:13:32;24.90;1.00
108;DHT22;49;48.530;9.200;2022-08-19T10:16:05;24.80;1.00
108;DHT22;49;48.530;9.200;2022-08-19T10:18:35;24.90;1.00
108;DHT22;49;48.530;9.200;2022-08-19T10:21:07;24.80;1.00
108;DHT22;49;48.530;9.200;2022-08-19T10:23:35;24.70;1.00
108;DHT22;49;48.530;9.200;2022-08-19T10:26:03;24.70;1.00
108;DHT22;49;48.530;9.200;2022-08-19T10:28:33;24.70;1.30
108;DHT22;49;48.530;9.200;2022-08-19T10:31:07;24.60;1.00
108;DHT22;49;48.530;9.200;2022-08-19T10:33:41;24.40;2.00
108;DHT22;49;48.530;9.200;2022-08-19T10:36:15;24.40;1.70
108;DHT22;49;48.530;9.200;2022-08-19T10:38:45;24.50;1.50
108;DHT22;49;48.530;9.200;2022-08-19T10:41:14;24.50;1.00
108;DHT22;49;48.530;9.200;2022-08-19T10:43:43;24.60;1.80
108;DHT22;49;48.530;9.200;2022-08-19T10:46:14;24.80;1.60
108;DHT22;49;48.530;9.200;2022-08-19T10:48:45;24.90;1.00
108;DHT22;49;48.530;9.200;2022-08-19T10:51:14;24.80;1.00
108;DHT22;49;48.530;9.200;2022-08-19T10:54:00;24.80;1.00
108;DHT22;49;48.530;9.200;2022-08-19T10:56:28;24.60;1.00
108;DHT22;49;48.530;9.200;2022-08-19T10:59:13;24.30;1.30
108;DHT22;49;48.530;9.200;2022-08-19T11:01:42;24.00;3.00
108;DHT22;49;48.530;9.200;2022-08-19T11:09:21;23.60;5.70
108;DHT22;49;48.530;9.200;2022-08-19T11:11:50;23.70;4.90
108;DHT22;49;48.530;9.200;2022-08-19T11:14:20;24.00;3.90
108;DHT22;49;48.530;9.200;2022-08-19T11:16:50;24.30;1.40
108;DHT22;49;48.530;9.200;2022-08-19T11:19:24;24.00;2.30
108;DHT22;49;48.530;9.200;2022-08-19T11:21:52;23.70;4.40
108;DHT22;49;48.530;9.200;2022-08-19T11:24:23;24.00;3.30
108;DHT22;49;48.530;9.200;2022-08-19T11:26:52;24.20;3.40
108;DHT22;49;48.530;9.200;2022-08-19T11:29:23;24.30;3.50
108;DHT22;49;48.530;9.200;2022-08-19T11:31:53;24.30;2.20
108;DHT22;49;48.530;9.200;2022-08-19T11:34:24;24.50;1.00
108;DHT22;49;48.530;9.200;2022-08-19T11:36:53;24.50;1.00
108;DHT22;49;48.530;9.200;2022-08-19T11:39:26;24.50;1.50
108;DHT22;49;48.530;9.200;2022-08-19T11:41:53;24.50;1.90
108;DHT22;49;48.530;9.200;2022-08-19T11:44:20;24.70;1.60
108;DHT22;49;48.530;9.200;2022-08-19T11:46:47;24.20;3.20
108;DHT22;49;48.530;9.200;2022-08-19T11:49:16;24.20;2.70
108;DHT22;49;48.530;9.200;2022-08-19T11:51:44;24.10;3.40
108;DHT22;49;48.530;9.200;2022-08-19T11:54:13;24.10;4.30
108;DHT22;49;48.530;9.200;2022-08-19T11:56:42;24.20;3.40
108;DHT22;49;48.530;9.200;2022-08-19T11:59:09;24.40;1.70
108;DHT22;49;48.530;9.200;2022-08-19T12:01:37;24.30;3.60
108;DHT22;49;48.530;9.200;2022-08-19T12:04:06;24.20;4.00
108;DHT22;49;48.530;9.200;2022-08-19T12:06:33;24.10;4.90
108;DHT22;49;48.530;9.200;2022-08-19T12:09:06;24.00;5.40
108;DHT22;49;48.530;9.200;2022-08-19T12:11:33;23.90;3.10
108;DHT22;49;48.530;9.200;2022-08-19T12:14:04;23.80;6.20
108;DHT22;49;48.530;9.200;2022-08-19T12:16:32;23.90;6.00
108;DHT22;49;48.530;9.200;2022-08-19T12:19:00;24.10;5.40
108;DHT22;49;48.530;9.200;2022-08-19T12:21:30;24.20;4.20
108;DHT22;49;48.530;9.200;2022-08-19T12:24:00;24.30;4.80
108;DHT22;49;48.530;9.200;2022-08-19T12:26:29;24.30;4.60
108;DHT22;49;48.530;9.200;2022-08-19T12:28:57;24.20;5.40
108;DHT22;49;48.530;9.200;2022-08-19T12:31:26;24.10;4.80
108;DHT22;49;48.530;9.200;2022-08-19T12:33:54;24.10;3.40
108;DHT22;49;48.530;9.200;2022-08-19T12:41:26;24.40;3.60
108;DHT22;49;48.530;9.200;2022-08-19T12:43:53;24.60;3.10
108;DHT22;49;48.530;9.200;2022-08-19T12:46:20;24.60;3.70
108;DHT22;49;48.530;9.200;2022-08-19T12:48:49;24.70;3.80
108;DHT22;49;48.530;9.200;2022-08-19T12:51:18;24.70;1.00
108;DHT22;49;48.530;9.200;2022-08-19T12:53:47;24.90;2.40
108;DHT22;49;48.530;9.200;2022-08-19T12:56:16;24.90;3.40
108;DHT22;49;48.530;9.200;2022-08-19T12:58:44;24.70;3.00
108;DHT22;49;48.530;9.200;2022-08-19T13:01:14;24.90;2.90
108;DHT22;49;48.530;9.200;2022-08-19T13:03:42;24.90;2.10
108;DHT22;49;48.530;9.200;2022-08-19T13:06:11;25.10;1.30
108;DHT22;49;48.530;9.200;2022-08-19T13:08:40;25.10;1.00
108;DHT22;49;48.530;9.200;2022-08-19T13:11:09;25.20;1.00
108;DHT22;49;48.530;9.200;2022-08-19T13:13:39;25.20;1.00
108;DHT22;49;48.530;9.200;2022-08-19T13:16:07;25.40;1.00
108;DHT22;49;48.530;9.200;2022-08-19T13:18:34;25.40;1.00
108;DHT22;49;48.530;9.200;2022-08-19T13:21:02;25.40;1.00
108;DHT22;49;48.530;9.200;2022-08-19T13:23:32;25.30;1.00
108;DHT22;49;48.530;9.200;2022-08-19T13:26:01;25.50;1.00
108;DHT22;49;48.530;9.200;2022-08-19T13:28:32;25.60;1.00
108;DHT22;49;48.530;9.200;2022-08-19T13:31:15;25.50;1.00
108;DHT22;49;48.530;9.200;2022-08-19T13:36:33;25.50;1.00
108;DHT22;49;48.530;9.200;2022-08-19T14:19:49;24.60;1.00
108;DHT22;49;48.530;9.200;2022-08-19T14:50:15;24.60;1.00
108;DHT22;49;48.530;9.200;2022-08-19T14:57:45;24.50;1.00
108;DHT22;49;48.530;9.200;2022-08-19T15:02:42;24.60;1.00
108;DHT22;49;48.530;9.200;2022-08-19T15:15:15;24.30;1.50
108;DHT22;49;48.530;9.200;2022-08-19T15:17:45;24.30;2.40
108;DHT22;49;48.530;9.200;2022-08-19T15:32:57;25.10;1.00
108;DHT22;49;48.530;9.200;2022-08-19T15:48:21;25.00;1.00
108;DHT22;49;48.530;9.200;2022-08-19T15:58:41;25.10;1.00
108;DHT22;49;48.530;9.200;2022-08-19T16:21:54;25.30;1.00
108;DHT22;49;48.530;9.200;2022-08-19T16:24:24;25.20;1.00
108;DHT22;49;48.530;9.200;2022-08-19T16:26:52;25.20;1.00
108;DHT22;49;48.530;9.200;2022-08-19T16:29:20;25.10;1.00
108;DHT22;49;48.530;9.200;2022-08-19T16:31:48;24.90;1.00
108;DHT22;49;48.530;9.200;2022-08-19T16:34:15;24.80;1.90
108;DHT22;49;48.530;9.200;2022-08-19T16:36:42;24.90;1.00
108;DHT22;49;48.530;9.200;2022-08-19T17:04:13;25.60;1.00
108;DHT22;49;48.530;9.200;2022-08-19T17:16:40;26.00;1.00
108;DHT22;49;48.530;9.200;2022-08-19T17:24:09;25.80;1.00
108;DHT22;49;48.530;9.200;2022-08-19T17:26:37;25.80;1.00
108;DHT22;49;48.530;9.200;2022-08-19T17:29:06;25.70;1.00
108;DHT22;49;48.530;9.200;2022-08-19T17:31:34;25.70;1.00
108;DHT22;49;48.530;9.200;2022-08-19T17:56:47;25.20;1.00
108;DHT22;49;48.530;9.200;2022-08-19T18:06:39;25.20;1.00
108;DHT22;49;48.530;9.200;2022-08-19T18:16:35;25.30;1.00
108;DHT22;49;48.530;9.200;2022-08-19T18:44:01;25.30;1.00
108;DHT22;49;48.530;9.200;2022-08-19T19:09:24;24.00;1.80
108;DHT22;49;48.530;9.200;2022-08-19T19:51:48;23.10;4.40
108;DHT22;49;48.530;9.200;2022-08-19T19:59:18;23.10;5.10
108;DHT22;49;48.530;9.200;2022-08-19T20:36:48;23.50;3.30
108;DHT22;49;48.530;9.200;2022-08-19T21:24:24;22.90;2.80
108;DHT22;49;48.530;9.200;2022-08-19T22:21:58;23.00;2.30
108;DHT22;49;48.530;9.200;2022-08-19T22:24:26;22.80;2.10
108;DHT22;49;48.530;9.200;2022-08-19T22:34:23;22.50;3.60
108;DHT22;49;48.530;9.200;2022-08-19T22:39:19;22.80;2.60
108;DHT22;49;48.530;9.200;2022-08-19T22:56:41;23.20;1.00
108;DHT22;49;48.530;9.200;2022-08-19T22:59:08;23.30;1.00
108;DHT22;49;48.530;9.200;2022-08-19T23:06:40;22.90;1.50
108;DHT22;49;48.530;9.200;2022-08-19T23:19:04;23.60;1.00
108;DHT22;49;48.530;9.200;2022-08-19T23:24:01;22.80;1.00
108;DHT22;49;48.530;9.200;2022-08-19T23:26:28;22.70;1.40
108;DHT22;49;48.530;9.200;2022-08-19T23:31:24;22.40;3.10
108;DHT22;49;48.530;9.200;2022-08-19T23:33:51;22.40;3.10
108;DHT22;49;48.530;9.200;2022-08-19T23:36:20;22.70;2.30
108;DHT22;49;48.530;9.200;2022-08-19T23:38:49;22.80;1.80
108;DHT22;49;48.530;9.200;2022-08-19T23:41:19;22.80;1.60
108;DHT22;49;48.530;9.200;2022-08-19T23:43:46;22.40;4.10
108;DHT22;49;48.530;9.200;2022-08-19T23:46:15;22.30;5.00
108;DHT22;49;48.530;9.200;2022-08-19T23:48:44;22.30;4.70
108;DHT22;49;48.530;9.200;2022-08-19T23:51:13;22.40;3.20
108;DHT22;49;48.530;9.200;2022-08-19T23:53:42;22.70;2.40
108;DHT22;49;48.530;9.200;2022-08-19T23:56:11;22.70;2.40
